Time;durP1;ratioP1;P1;durP2;ratioP2;P2;SDS_P1;SDS_P2;PMS_P1;PMS_P2;Temp;Humidity;BMP_temperature;BMP_pressure;BME280_temperature;BME280_humidity;BME280_pressure;Samples;Min_cycle;Max_cycle;Signal;HPM_P1;HPM_P2
2023/09/15 00:00:51;;;;;;;10.20;4.30;;;;;;;;;;5112974;28;20485;-61
2023/09/15 00:03:18;;;;;;;8.33;4.80;;;;;;;;;;5112966;28;20505;-62
2023/09/15 00:05:46;;;;;;;5.30;4.07;;;;;;;;;;5113051;28;20434;-62
2023/09/15 00:08:13;;;;;;;7.47;4.87;;;;;;;;;;5113270;28;20446;-62
2023/09/15 00:10:41;;;;;;;9.57;4.57;;;;;;;;;;5112931;28;20448;-61
2023/09/15 00:13:08;;;;;;;7.73;5.00;;;;;;;;;;5113062;28;20439;-61
2023/09/15 00:15:35;;;;;;;7.27;5.00;;;;;;;;;;5113244;28;20487;-62
2023/09/15 00:18:04;;;;;;;7.07;4.63;;;;;;;;;;5113244;28;20435;-62
2023/09/15 00:20:32;;;;;;;6.50;4.43;;;;;;;;;;5112835;28;20470;-62
2023/09/15 00:22:59;;;;;;;7.37;5.17;;;;;;;;;;5112915;28;20917;-62
2023/09/15 00:25:26;;;;;;;8.00;4.73;;;;;;;;;;5113196;28;20476;-61
2023/09/15 00:27:55;;;;;;;12.83;4.80;;;;;;;;;;5113076;28;20440;-62
2023/09/15 00:30:22;;;;;;;6.47;4.73;;;;;;;;;;5112856;28;20439;-62
2023/09/15 00:32:50;;;;;;;8.23;4.87;;;;;;;;;;5112975;28;20571;-62
2023/09/15 00:35:20;;;;;;;9.10;5.37;;;;;;;;;;5113097;28;20444;-62
2023/09/15 00:37:49;;;;;;;10.27;4.93;;;;;;;;;;5113213;28;20425;-62
2023/09/15 00:40:16;;;;;;;6.20;4.70;;;;;;;;;;5113092;28;20505;-61
2023/09/15 00:42:44;;;;;;;9.00;5.27;;;;;;;;;;5112559;28;20444;-62
2023/09/15 00:45:14;;;;;;;12.60;5.30;;;;;;;;;;5113023;28;20445;-61
2023/09/15 00:47:43;;;;;;;9.40;5.70;;;;;;;;;;5112869;28;20535;-62
2023/09/15 00:50:13;;;;;;;9.30;5.00;;;;;;;;;;5113063;28;20506;-62
2023/09/15 00:52:42;;;;;;;6.97;5.57;;;;;;;;;;5112484;28;20527;-62
2023/09/15 00:55:10;;;;;;;6.47;4.87;;;;;;;;;;5113025;28;20547;-61
2023/09/15 00:57:38;;;;;;;7.57;5.43;;;;;;;;;;5113181;28;20439;-61
2023/09/15 01:00:11;;;;;;;15.10;5.30;;;;;;;;;;5112962;28;20472;-61
2023/09/15 01:02:38;;;;;;;6.67;5.20;;;;;;;;;;5112995;28;20421;-61
2023/09/15 01:05:06;;;;;;;10.80;5.97;;;;;;;;;;5112494;28;20436;-62
2023/09/15 01:07:34;;;;;;;8.80;5.87;;;;;;;;;;5112778;28;20433;-62
2023/09/15 01:10:02;;;;;;;10.00;5.10;;;;;;;;;;5114109;28;21006;-62
2023/09/15 01:12:31;;;;;;;10.63;5.80;;;;;;;;;;5116399;28;20432;-63
2023/09/15 01:14:58;;;;;;;7.80;5.60;;;;;;;;;;5116200;28;20982;-62
2023/09/15 01:17:32;;;;;;;8.00;5.43;;;;;;;;;;5116365;28;20436;-62
2023/09/15 01:20:09;;;;;;;18.37;6.13;;;;;;;;;;5116318;28;20837;-62
2023/09/15 01:23:02;;;;;;;14.77;6.60;;;;;;;;;;5116517;28;20427;-62
2023/09/15 01:25:52;;;;;;;10.10;5.80;;;;;;;;;;5116350;28;20568;-61
2023/09/15 01:28:21;;;;;;;11.47;5.77;;;;;;;;;;5116427;28;20420;-62
2023/09/15 01:30:51;;;;;;;8.93;6.23;;;;;;;;;;5115868;28;20799;-62
2023/09/15 01:33:19;;;;;;;9.30;6.10;;;;;;;;;;5115772;28;20449;-62
2023/09/15 01:35:46;;;;;;;8.90;6.00;;;;;;;;;;5116060;28;20438;-61
2023/09/15 01:38:14;;;;;;;9.83;5.67;;;;;;;;;;5115634;28;20527;-61
2023/09/15 01:40:41;;;;;;;7.50;5.93;;;;;;;;;;5115609;28;20467;-62
2023/09/15 01:43:08;;;;;;;13.10;5.57;;;;;;;;;;5115827;28;20790;-62
2023/09/15 01:45:35;;;;;;;9.90;5.80;;;;;;;;;;5115871;28;20601;-61
2023/09/15 01:48:04;;;;;;;9.90;6.63;;;;;;;;;;5115440;28;20933;-62
2023/09/15 01:50:32;;;;;;;12.03;6.40;;;;;;;;;;5115832;28;20439;-62
2023/09/15 01:53:00;;;;;;;9.57;6.30;;;;;;;;;;5115612;28;20473;-62
2023/09/15 01:55:27;;;;;;;11.23;6.53;;;;;;;;;;5115393;28;20455;-61
2023/09/15 01:57:54;;;;;;;9.77;6.27;;;;;;;;;;5115597;28;20472;-61
2023/09/15 02:00:21;;;;;;;13.23;6.10;;;;;;;;;;5115165;28;20480;-62
2023/09/15 02:02:48;;;;;;;9.23;7.13;;;;;;;;;;5115091;28;21018;-60
2023/09/15 02:05:24;;;;;;;8.07;6.40;;;;;;;;;;5115470;28;20795;-59
2023/09/15 02:07:52;;;;;;;9.20;6.67;;;;;;;;;;5115619;28;20425;-60
2023/09/15 02:10:19;;;;;;;12.13;7.20;;;;;;;;;;5115511;28;20864;-61
2023/09/15 02:12:46;;;;;;;11.73;6.60;;;;;;;;;;5115056;28;20438;-61
2023/09/15 02:15:14;;;;;;;11.23;6.93;;;;;;;;;;5114955;28;20439;-62
2023/09/15 02:17:42;;;;;;;8.90;6.97;;;;;;;;;;5115294;28;20439;-61
2023/09/15 02:20:12;;;;;;;10.03;7.03;;;;;;;;;;5114964;28;20479;-61
2023/09/15 02:22:42;;;;;;;9.30;7.03;;;;;;;;;;5113956;28;20432;-62
2023/09/15 02:25:10;;;;;;;16.23;7.10;;;;;;;;;;5114658;28;20478;-61
2023/09/15 02:27:37;;;;;;;11.77;7.20;;;;;;;;;;5115162;28;20446;-61
2023/09/15 02:30:05;;;;;;;8.67;6.90;;;;;;;;;;5115022;28;20458;-62
2023/09/15 02:32:32;;;;;;;16.10;7.60;;;;;;;;;;5114552;28;20445;-61
2023/09/15 02:34:59;;;;;;;13.00;6.70;;;;;;;;;;5114522;28;20527;-61
2023/09/15 02:37:27;;;;;;;10.00;6.97;;;;;;;;;;5114945;28;20970;-61
2023/09/15 02:39:55;;;;;;;8.33;7.00;;;;;;;;;;5114403;28;20577;-61
2023/09/15 02:42:22;;;;;;;8.10;6.47;;;;;;;;;;5114392;28;20443;-61
2023/09/15 02:44:50;;;;;;;11.30;7.40;;;;;;;;;;5114266;28;20431;-62
2023/09/15 02:47:17;;;;;;;6.97;6.03;;;;;;;;;;5114361;28;20519;-61
2023/09/15 02:49:44;;;;;;;9.73;7.43;;;;;;;;;;5114594;28;20526;-62
2023/09/15 02:52:11;;;;;;;10.50;6.60;;;;;;;;;;5114229;28;20436;-61
2023/09/15 02:54:39;;;;;;;10.97;6.87;;;;;;;;;;5114702;28;20856;-62
2023/09/15 02:57:08;;;;;;;8.00;6.67;;;;;;;;;;5114463;28;20450;-61
2023/09/15 02:59:35;;;;;;;9.97;7.00;;;;;;;;;;5114212;28;20846;-62
2023/09/15 03:02:02;;;;;;;15.20;7.70;;;;;;;;;;5114442;28;20442;-61
2023/09/15 03:04:29;;;;;;;8.70;6.70;;;;;;;;;;5114634;28;20525;-62
2023/09/15 03:06:57;;;;;;;12.00;7.40;;;;;;;;;;5114081;28;20446;-61
2023/09/15 03:09:24;;;;;;;10.33;6.37;;;;;;;;;;5114283;28;20435;-62
2023/09/15 03:11:51;;;;;;;10.63;6.77;;;;;;;;;;5113793;28;20484;-61
2023/09/15 03:14:20;;;;;;;8.60;6.20;;;;;;;;;;5114023;28;20436;-62
2023/09/15 03:16:47;;;;;;;9.50;6.87;;;;;;;;;;5113775;28;20451;-61
2023/09/15 03:19:14;;;;;;;13.53;7.33;;;;;;;;;;5113770;28;20891;-62
2023/09/15 03:21:41;;;;;;;7.53;6.70;;;;;;;;;;5113953;28;20489;-62
2023/09/15 03:24:09;;;;;;;7.90;6.27;;;;;;;;;;5113589;28;20469;-62
2023/09/15 03:26:39;;;;;;;8.60;7.00;;;;;;;;;;5114060;28;20438;-62
2023/09/15 03:29:06;;;;;;;13.10;6.53;;;;;;;;;;5113793;28;20447;-61
2023/09/15 03:31:35;;;;;;;10.50;7.17;;;;;;;;;;5113814;28;20445;-62
2023/09/15 03:34:02;;;;;;;16.63;7.10;;;;;;;;;;5113151;28;20464;-62
2023/09/15 03:36:29;;;;;;;9.43;7.00;;;;;;;;;;5113780;28;20430;-63
2023/09/15 03:38:56;;;;;;;13.37;6.60;;;;;;;;;;5113684;28;20616;-62
2023/09/15 03:41:24;;;;;;;9.47;7.13;;;;;;;;;;5113523;28;20825;-62
2023/09/15 03:43:51;;;;;;;16.77;7.77;;;;;;;;;;5113887;28;20471;-61
2023/09/15 03:46:18;;;;;;;9.47;6.30;;;;;;;;;;5113499;28;20488;-61
2023/09/15 03:48:47;;;;;;;11.50;7.63;;;;;;;;;;5113345;28;20891;-61
2023/09/15 03:51:14;;;;;;;8.53;6.57;;;;;;;;;;5113451;28;20438;-61
2023/09/15 03:53:41;;;;;;;10.50;7.67;;;;;;;;;;5112186;28;20497;-61
2023/09/15 03:56:08;;;;;;;9.33;7.47;;;;;;;;;;5111897;28;20803;-62
2023/09/15 03:58:36;;;;;;;8.40;7.17;;;;;;;;;;5112481;28;20439;-61
2023/09/15 04:01:06;;;;;;;7.57;6.37;;;;;;;;;;5111927;28;20470;-61
2023/09/15 04:03:34;;;;;;;8.63;6.30;;;;;;;;;;5112134;28;20423;-61
2023/09/15 04:06:05;;;;;;;11.10;7.40;;;;;;;;;;5112787;28;20436;-61
2023/09/15 04:08:32;;;;;;;10.67;7.10;;;;;;;;;;5112580;28;20434;-62
2023/09/15 04:11:00;;;;;;;8.70;7.70;;;;;;;;;;5112764;28;20884;-61
2023/09/15 04:13:27;;;;;;;8.43;6.70;;;;;;;;;;5112815;28;20434;-61
2023/09/15 04:15:56;;;;;;;9.60;7.17;;;;;;;;;;5112985;28;20621;-61
2023/09/15 04:18:23;;;;;;;8.23;7.27;;;;;;;;;;5113108;28;20482;-61
2023/09/15 04:20:51;;;;;;;12.07;8.13;;;;;;;;;;5112562;28;20482;-61
2023/09/15 04:23:19;;;;;;;11.00;6.63;;;;;;;;;;5112657;28;20787;-61
2023/09/15 04:25:46;;;;;;;8.10;6.90;;;;;;;;;;5131171;28;20474;-61
2023/09/15 04:28:14;;;;;;;8.37;7.07;;;;;;;;;;5133205;28;20435;-62
2023/09/15 04:30:42;;;;;;;21.13;12.40;;;;;;;;;;5133210;28;20582;-61
2023/09/15 04:33:09;;;;;;;12.33;8.90;;;;;;;;;;5132787;28;20441;-62
2023/09/15 04:35:37;;;;;;;11.17;7.50;;;;;;;;;;5132813;28;20821;-61
2023/09/15 04:38:04;;;;;;;8.53;7.10;;;;;;;;;;5132987;28;20436;-62
2023/09/15 04:40:32;;;;;;;8.10;7.27;;;;;;;;;;5132959;28;20481;-62
2023/09/15 04:43:00;;;;;;;11.33;7.00;;;;;;;;;;5132776;28;20473;-63
2023/09/15 04:45:27;;;;;;;7.17;6.37;;;;;;;;;;5135863;27;20441;-62
2023/09/15 04:47:54;;;;;;;11.27;7.20;;;;;;;;;;5137484;27;20441;-61
2023/09/15 04:50:21;;;;;;;10.10;6.90;;;;;;;;;;5136781;27;21017;-63
2023/09/15 04:52:49;;;;;;;9.17;6.93;;;;;;;;;;5137086;27;20796;-62
2023/09/15 04:55:16;;;;;;;17.40;7.10;;;;;;;;;;5137166;27;20611;-61
2023/09/15 04:57:45;;;;;;;21.80;8.40;;;;;;;;;;5137222;27;20438;-62
2023/09/15 05:00:13;;;;;;;9.40;7.70;;;;;;;;;;5137282;27;20430;-61
2023/09/15 05:02:42;;;;;;;8.80;7.10;;;;;;;;;;5136259;27;20539;-62
2023/09/15 05:05:09;;;;;;;7.63;6.83;;;;;;;;;;5136571;27;20813;-62
2023/09/15 05:07:37;;;;;;;12.00;7.43;;;;;;;;;;5136622;27;20427;-61
2023/09/15 05:10:05;;;;;;;11.50;6.87;;;;;;;;;;5136395;27;20430;-62
2023/09/15 05:12:32;;;;;;;7.23;6.50;;;;;;;;;;5137164;27;20787;-61
2023/09/15 05:15:03;;;;;;;7.27;6.60;;;;;;;;;;5137108;27;20430;-61
2023/09/15 05:17:30;;;;;;;12.30;7.00;;;;;;;;;;5136900;27;20465;-61
2023/09/15 05:19:57;;;;;;;12.03;7.30;;;;;;;;;;5137225;27;20553;-61
2023/09/15 05:22:24;;;;;;;8.03;7.33;;;;;;;;;;5136389;27;20545;-61
2023/09/15 05:24:52;;;;;;;10.30;7.50;;;;;;;;;;5136503;27;20836;-61
2023/09/15 05:27:19;;;;;;;9.47;6.03;;;;;;;;;;5136949;27;20520;-61
2023/09/15 05:29:46;;;;;;;9.67;7.00;;;;;;;;;;5136718;27;20442;-62
2023/09/15 05:32:15;;;;;;;9.83;6.73;;;;;;;;;;5136271;27;20445;-61
2023/09/15 05:34:42;;;;;;;11.00;7.67;;;;;;;;;;5136896;27;20433;-61
2023/09/15 05:37:09;;;;;;;10.07;7.47;;;;;;;;;;5136511;27;20442;-61
2023/09/15 05:39:36;;;;;;;14.70;7.67;;;;;;;;;;5136606;27;20499;-62
2023/09/15 05:42:04;;;;;;;11.10;7.00;;;;;;;;;;5136670;27;20560;-62
2023/09/15 05:44:31;;;;;;;8.63;6.53;;;;;;;;;;5136465;27;20490;-62
2023/09/15 05:46:58;;;;;;;8.07;7.27;;;;;;;;;;5136049;27;20438;-62
2023/09/15 05:49:27;;;;;;;8.30;7.00;;;;;;;;;;5136097;27;20444;-62
2023/09/15 05:51:54;;;;;;;9.80;7.53;;;;;;;;;;5136729;27;20449;-62
2023/09/15 05:54:21;;;;;;;11.73;7.47;;;;;;;;;;5136504;27;20450;-62
2023/09/15 05:56:48;;;;;;;15.83;7.50;;;;;;;;;;5136348;27;20842;-62
2023/09/15 05:59:15;;;;;;;9.20;7.10;;;;;;;;;;5136127;27;20540;-61
2023/09/15 06:01:46;;;;;;;14.50;7.20;;;;;;;;;;5136115;27;20471;-62
2023/09/15 06:04:13;;;;;;;10.30;7.23;;;;;;;;;;5136557;27;20442;-62
2023/09/15 06:06:42;;;;;;;12.87;6.80;;;;;;;;;;5135585;27;20877;-61
2023/09/15 06:09:09;;;;;;;10.70;7.30;;;;;;;;;;5135620;27;20430;-61
2023/09/15 06:11:36;;;;;;;7.83;5.93;;;;;;;;;;5135510;27;21041;-62
2023/09/15 06:14:04;;;;;;;9.40;6.23;;;;;;;;;;5136207;27;20474;-62
2023/09/15 06:16:33;;;;;;;8.67;6.70;;;;;;;;;;5135606;27;20430;-62
2023/09/15 06:19:02;;;;;;;11.03;6.57;;;;;;;;;;5135806;27;20495;-62
2023/09/15 06:21:29;;;;;;;11.53;7.23;;;;;;;;;;5135353;27;20499;-62
2023/09/15 06:23:58;;;;;;;9.27;7.13;;;;;;;;;;5135612;27;20479;-62
2023/09/15 06:26:25;;;;;;;10.57;7.30;;;;;;;;;;5135391;27;20431;-62
2023/09/15 06:28:52;;;;;;;16.60;12.20;;;;;;;;;;5135579;27;20839;-62
2023/09/15 06:31:19;;;;;;;9.20;7.43;;;;;;;;;;5135610;27;20522;-62
2023/09/15 06:33:47;;;;;;;7.73;6.03;;;;;;;;;;5135413;27;20482;-62
2023/09/15 06:36:15;;;;;;;9.90;5.93;;;;;;;;;;5135105;27;20517;-61
2023/09/15 06:38:42;;;;;;;9.47;6.60;;;;;;;;;;5135129;27;20447;-61
2023/09/15 06:41:11;;;;;;;8.17;6.60;;;;;;;;;;5135403;27;20471;-61
2023/09/15 06:43:38;;;;;;;9.67;6.60;;;;;;;;;;5134769;27;20904;-61
2023/09/15 06:46:05;;;;;;;10.83;6.50;;;;;;;;;;5135493;27;20440;-61
2023/09/15 06:48:32;;;;;;;7.43;6.17;;;;;;;;;;5135067;27;20451;-61
2023/09/15 06:50:59;;;;;;;9.50;7.00;;;;;;;;;;5135117;27;20446;-61
2023/09/15 06:53:26;;;;;;;10.80;6.80;;;;;;;;;;5134978;27;20537;-62
2023/09/15 06:55:55;;;;;;;9.50;6.60;;;;;;;;;;5134613;27;21004;-61
2023/09/15 06:58:24;;;;;;;14.10;7.53;;;;;;;;;;5134538;27;20445;-62
2023/09/15 07:00:51;;;;;;;15.33;5.90;;;;;;;;;;5134744;27;20478;-61
2023/09/15 07:03:18;;;;;;;10.90;6.80;;;;;;;;;;5134986;27;20427;-61
2023/09/15 07:05:45;;;;;;;8.37;5.93;;;;;;;;;;5134655;27;20443;-61
2023/09/15 07:08:12;;;;;;;11.03;6.47;;;;;;;;;;5133907;27;20439;-62
2023/09/15 07:10:39;;;;;;;8.73;6.30;;;;;;;;;;5134412;27;20454;-62
2023/09/15 07:13:07;;;;;;;7.90;6.10;;;;;;;;;;5134222;27;20450;-62
2023/09/15 07:15:36;;;;;;;7.27;5.70;;;;;;;;;;5134275;27;20439;-62
2023/09/15 07:18:05;;;;;;;6.90;5.20;;;;;;;;;;5134873;27;20487;-62
2023/09/15 07:20:33;;;;;;;7.33;5.70;;;;;;;;;;5134583;27;20433;-62
2023/09/15 07:23:00;;;;;;;8.20;6.00;;;;;;;;;;5134200;27;20480;-62
2023/09/15 07:25:27;;;;;;;9.40;6.07;;;;;;;;;;5134204;27;20827;-61
2023/09/15 07:27:54;;;;;;;7.57;5.47;;;;;;;;;;5134423;27;20427;-62
2023/09/15 07:30:21;;;;;;;12.50;7.10;;;;;;;;;;5134071;27;20530;-61
2023/09/15 07:32:50;;;;;;;7.50;5.90;;;;;;;;;;5133860;27;20440;-62
2023/09/15 07:35:17;;;;;;;15.30;9.17;;;;;;;;;;5134232;27;20868;-61
2023/09/15 07:37:44;;;;;;;9.60;7.37;;;;;;;;;;5134122;27;20476;-61
2023/09/15 07:40:12;;;;;;;6.93;5.73;;;;;;;;;;5134234;27;20437;-62
2023/09/15 07:42:40;;;;;;;8.40;5.40;;;;;;;;;;5134036;27;20834;-62
2023/09/15 07:45:07;;;;;;;12.90;9.50;;;;;;;;;;5134156;27;20538;-61
2023/09/15 07:47:34;;;;;;;15.77;6.60;;;;;;;;;;5134192;27;20439;-61
2023/09/15 07:50:03;;;;;;;11.23;5.70;;;;;;;;;;5134012;27;20443;-61
2023/09/15 07:52:30;;;;;;;13.87;5.80;;;;;;;;;;5133707;27;20447;-61
2023/09/15 07:54:57;;;;;;;11.07;5.73;;;;;;;;;;5134024;27;20860;-62
2023/09/15 07:57:25;;;;;;;10.33;6.00;;;;;;;;;;5133668;27;20444;-62
2023/09/15 07:59:52;;;;;;;10.07;7.23;;;;;;;;;;5133476;27;20561;-62
2023/09/15 08:02:20;;;;;;;10.60;6.17;;;;;;;;;;5133848;27;20555;-61
2023/09/15 08:04:48;;;;;;;17.37;12.20;;;;;;;;;;5133891;27;20444;-61
2023/09/15 08:07:16;;;;;;;16.83;10.33;;;;;;;;;;5133583;27;20434;-62
2023/09/15 08:09:43;;;;;;;10.33;6.80;;;;;;;;;;5133410;27;20445;-62
2023/09/15 08:12:11;;;;;;;10.70;6.00;;;;;;;;;;5133229;27;20796;-62
2023/09/15 08:14:38;;;;;;;15.90;6.60;;;;;;;;;;5133289;28;20922;-61
2023/09/15 08:17:06;;;;;;;12.53;5.30;;;;;;;;;;5133736;28;20497;-61
2023/09/15 08:19:33;;;;;;;9.73;6.10;;;;;;;;;;5134345;27;20492;-62
2023/09/15 08:22:00;;;;;;;10.57;5.90;;;;;;;;;;5137605;27;20533;-62
2023/09/15 08:24:29;;;;;;;13.80;5.47;;;;;;;;;;5137267;27;20570;-62
2023/09/15 08:26:56;;;;;;;14.47;7.07;;;;;;;;;;5137571;27;20437;-61
2023/09/15 08:29:23;;;;;;;9.03;6.40;;;;;;;;;;5137836;27;20527;-62
2023/09/15 08:31:50;;;;;;;9.43;6.00;;;;;;;;;;5137656;27;20455;-61
2023/09/15 08:34:18;;;;;;;11.33;6.60;;;;;;;;;;5138085;27;20497;-62
2023/09/15 08:36:45;;;;;;;6.93;5.37;;;;;;;;;;5137583;27;20433;-61
2023/09/15 08:39:12;;;;;;;13.10;5.67;;;;;;;;;;5137895;27;20441;-62
2023/09/15 08:41:42;;;;;;;9.57;6.53;;;;;;;;;;5137688;27;20483;-62
2023/09/15 08:44:10;;;;;;;10.27;6.00;;;;;;;;;;5137419;27;20438;-62
2023/09/15 08:46:39;;;;;;;11.27;6.37;;;;;;;;;;5137272;27;20431;-61
2023/09/15 08:49:08;;;;;;;11.50;7.00;;;;;;;;;;5137791;27;20524;-62
2023/09/15 08:51:35;;;;;;;9.50;6.30;;;;;;;;;;5137155;27;20431;-62
2023/09/15 08:54:03;;;;;;;10.30;6.83;;;;;;;;;;5137190;27;20544;-62
2023/09/15 08:56:30;;;;;;;11.07;7.77;;;;;;;;;;5137331;27;20432;-61
2023/09/15 08:59:00;;;;;;;16.43;10.60;;;;;;;;;;5136835;27;20849;-62
2023/09/15 09:01:27;;;;;;;12.87;7.70;;;;;;;;;;5137095;27;20527;-62
2023/09/15 09:03:54;;;;;;;10.83;5.70;;;;;;;;;;5136839;27;20912;-62
2023/09/15 09:06:23;;;;;;;8.80;5.80;;;;;;;;;;5137052;27;20518;-62
2023/09/15 09:08:50;;;;;;;8.57;6.17;;;;;;;;;;5137053;27;20434;-62
2023/09/15 09:11:17;;;;;;;7.43;6.00;;;;;;;;;;5137096;27;20477;-62
2023/09/15 09:13:51;;;;;;;8.80;6.33;;;;;;;;;;5136984;27;20447;-62
2023/09/15 09:16:20;;;;;;;11.00;5.97;;;;;;;;;;5136689;27;20434;-61
2023/09/15 09:18:57;;;;;;;11.47;7.83;;;;;;;;;;5136590;27;20435;-62
2023/09/15 09:21:25;;;;;;;10.10;7.27;;;;;;;;;;5136391;27;20433;-62
2023/09/15 09:23:52;;;;;;;8.30;6.97;;;;;;;;;;5135983;27;20488;-62
2023/09/15 09:26:19;;;;;;;10.73;5.50;;;;;;;;;;5136490;27;20454;-61
2023/09/15 09:28:47;;;;;;;11.20;6.20;;;;;;;;;;5136429;27;20435;-62
2023/09/15 09:31:14;;;;;;;6.50;4.90;;;;;;;;;;5135897;27;20444;-62
2023/09/15 09:33:43;;;;;;;8.33;5.37;;;;;;;;;;5136423;27;20511;-62
2023/09/15 09:36:11;;;;;;;10.13;4.87;;;;;;;;;;5135919;27;20777;-62
2023/09/15 09:38:38;;;;;;;9.37;5.10;;;;;;;;;;5136002;27;20439;-62
2023/09/15 09:41:06;;;;;;;9.60;4.77;;;;;;;;;;5136231;27;20947;-62
2023/09/15 09:43:35;;;;;;;10.60;4.70;;;;;;;;;;5136068;27;20566;-62
2023/09/15 09:46:03;;;;;;;6.10;4.20;;;;;;;;;;5135911;27;20439;-62
2023/09/15 09:48:32;;;;;;;6.53;4.80;;;;;;;;;;5136368;27;20448;-61
2023/09/15 09:51:01;;;;;;;7.57;4.10;;;;;;;;;;5136128;27;20454;-62
2023/09/15 09:53:29;;;;;;;7.23;4.40;;;;;;;;;;5136016;27;20468;-61
2023/09/15 09:55:57;;;;;;;5.93;4.00;;;;;;;;;;5135777;27;20878;-62
2023/09/15 09:58:25;;;;;;;7.50;4.50;;;;;;;;;;5136258;27;20521;-62
2023/09/15 10:00:52;;;;;;;6.23;4.40;;;;;;;;;;5135949;27;20482;-62
2023/09/15 10:03:19;;;;;;;6.03;3.90;;;;;;;;;;5136265;27;20480;-62
2023/09/15 10:05:47;;;;;;;6.40;3.97;;;;;;;;;;5135847;27;20445;-62
2023/09/15 10:08:16;;;;;;;7.83;4.23;;;;;;;;;;5135630;27;20562;-62
2023/09/15 10:10:44;;;;;;;4.90;4.27;;;;;;;;;;5135805;27;20465;-62
2023/09/15 10:13:11;;;;;;;9.60;4.30;;;;;;;;;;5135887;27;20437;-62
2023/09/15 10:15:40;;;;;;;9.83;7.37;;;;;;;;;;5135722;27;20428;-62
2023/09/15 10:18:08;;;;;;;5.43;4.17;;;;;;;;;;5135348;27;21048;-62
2023/09/15 10:20:35;;;;;;;7.97;4.10;;;;;;;;;;5135498;27;20459;-62
2023/09/15 10:23:04;;;;;;;8.07;4.37;;;;;;;;;;5135165;27;21012;-62
2023/09/15 10:25:42;;;;;;;4.53;3.47;;;;;;;;;;5135484;27;20857;-61
2023/09/15 10:28:09;;;;;;;9.30;3.83;;;;;;;;;;5135810;27;20817;-63
2023/09/15 10:30:37;;;;;;;6.67;4.40;;;;;;;;;;5135364;27;20535;-62
2023/09/15 10:33:04;;;;;;;6.37;3.57;;;;;;;;;;5135465;27;20517;-62
2023/09/15 10:35:33;;;;;;;4.53;3.50;;;;;;;;;;5135061;27;20436;-62
2023/09/15 10:38:03;;;;;;;5.80;3.60;;;;;;;;;;5135383;27;20440;-62
2023/09/15 10:40:30;;;;;;;14.43;8.80;;;;;;;;;;5134962;27;20422;-62
2023/09/15 10:43:08;;;;;;;8.87;4.40;;;;;;;;;;5134278;27;20489;-62
2023/09/15 10:45:36;;;;;;;6.67;4.17;;;;;;;;;;5134781;27;20424;-62
2023/09/15 10:48:04;;;;;;;14.90;8.43;;;;;;;;;;5135193;27;20803;-62
2023/09/15 10:50:32;;;;;;;8.87;4.47;;;;;;;;;;5134592;27;20918;-62
2023/09/15 10:53:07;;;;;;;5.93;4.67;;;;;;;;;;5134927;27;20439;-62
2023/09/15 10:55:35;;;;;;;6.50;3.50;;;;;;;;;;5134913;27;20946;-62
2023/09/15 10:58:04;;;;;;;5.50;3.27;;;;;;;;;;5134644;27;20494;-62
2023/09/15 11:00:31;;;;;;;10.47;4.70;;;;;;;;;;5134451;27;20447;-62
2023/09/15 11:02:59;;;;;;;4.67;3.50;;;;;;;;;;5134788;27;20497;-62
2023/09/15 11:05:28;;;;;;;6.27;4.03;;;;;;;;;;5134762;27;20836;-62
2023/09/15 11:07:56;;;;;;;5.30;3.60;;;;;;;;;;5134804;27;20442;-62
2023/09/15 11:10:28;;;;;;;5.47;3.60;;;;;;;;;;5135087;27;20454;-62
2023/09/15 11:12:59;;;;;;;3.80;3.47;;;;;;;;;;5134783;27;20434;-62
2023/09/15 11:15:28;;;;;;;7.63;4.30;;;;;;;;;;5134187;27;20441;-62
2023/09/15 11:17:55;;;;;;;5.33;3.77;;;;;;;;;;5134543;27;20441;-61
2023/09/15 11:20:22;;;;;;;7.00;4.00;;;;;;;;;;5134070;27;20437;-62
2023/09/15 11:22:55;;;;;;;5.10;3.70;;;;;;;;;;5133950;27;20999;-62
2023/09/15 11:25:22;;;;;;;7.23;3.60;;;;;;;;;;5134703;27;20740;-62
2023/09/15 11:27:49;;;;;;;4.40;3.60;;;;;;;;;;5133940;27;20465;-62
2023/09/15 11:30:17;;;;;;;11.13;4.67;;;;;;;;;;5134287;27;20448;-62
2023/09/15 11:32:46;;;;;;;21.13;13.63;;;;;;;;;;5134148;27;20874;-62
2023/09/15 11:35:14;;;;;;;11.53;7.33;;;;;;;;;;5134620;27;20993;-62
2023/09/15 11:37:41;;;;;;;6.90;3.60;;;;;;;;;;5134268;27;20480;-63
2023/09/15 11:40:08;;;;;;;9.40;4.20;;;;;;;;;;5134464;27;20523;-62
2023/09/15 11:42:36;;;;;;;7.13;4.60;;;;;;;;;;5133621;27;20875;-62
2023/09/15 11:45:04;;;;;;;8.03;3.20;;;;;;;;;;5134058;27;20452;-62
2023/09/15 11:47:32;;;;;;;6.40;3.60;;;;;;;;;;5133862;27;20849;-62
2023/09/15 11:50:03;;;;;;;7.70;3.60;;;;;;;;;;5133762;27;20435;-62
2023/09/15 11:52:32;;;;;;;11.63;9.77;;;;;;;;;;5134301;27;20417;-62
2023/09/15 11:54:59;;;;;;;5.63;3.40;;;;;;;;;;5134219;27;20805;-62
2023/09/15 11:57:26;;;;;;;4.30;3.57;;;;;;;;;;5133783;27;20438;-62
2023/09/15 11:59:53;;;;;;;3.30;3.00;;;;;;;;;;5133533;27;20549;-62
2023/09/15 12:02:22;;;;;;;9.37;3.60;;;;;;;;;;5133492;27;20792;-62
2023/09/15 12:04:49;;;;;;;6.67;3.37;;;;;;;;;;5133685;27;20521;-62
2023/09/15 12:07:18;;;;;;;7.37;3.37;;;;;;;;;;5133718;27;20541;-62
2023/09/15 12:09:45;;;;;;;4.80;2.47;;;;;;;;;;5133760;27;20437;-62
2023/09/15 12:12:17;;;;;;;3.20;2.67;;;;;;;;;;5133371;27;20437;-62
2023/09/15 12:14:46;;;;;;;5.53;2.60;;;;;;;;;;5133722;27;20430;-62
2023/09/15 12:17:15;;;;;;;5.40;3.13;;;;;;;;;;5133091;27;20544;-62
2023/09/15 12:19:42;;;;;;;3.93;3.27;;;;;;;;;;5133165;28;20466;-62
2023/09/15 12:22:09;;;;;;;4.13;2.70;;;;;;;;;;5132839;28;20436;-62
2023/09/15 12:24:38;;;;;;;6.87;2.47;;;;;;;;;;5133373;28;20908;-62
2023/09/15 12:27:05;;;;;;;3.93;2.77;;;;;;;;;;5132799;28;20422;-62
2023/09/15 12:29:33;;;;;;;5.60;3.10;;;;;;;;;;5133378;28;20429;-62
2023/09/15 12:32:04;;;;;;;7.13;2.90;;;;;;;;;;5132879;28;20436;-66
2023/09/15 12:34:31;;;;;;;4.07;2.57;;;;;;;;;;5133118;28;20438;-62
2023/09/15 12:36:59;;;;;;;4.90;2.60;;;;;;;;;;5133047;28;20452;-62
2023/09/15 12:39:28;;;;;;;4.13;2.30;;;;;;;;;;5133139;28;20525;-62
2023/09/15 12:42:05;;;;;;;7.83;2.70;;;;;;;;;;5133086;28;20544;-63
2023/09/15 12:44:32;;;;;;;6.30;3.10;;;;;;;;;;5133539;28;20521;-62
2023/09/15 12:46:59;;;;;;;5.70;2.93;;;;;;;;;;5133494;28;20440;-63
2023/09/15 12:49:26;;;;;;;7.40;3.53;;;;;;;;;;5133166;28;20430;-63
2023/09/15 12:51:54;;;;;;;2.77;2.53;;;;;;;;;;5132969;28;20528;-63
2023/09/15 12:54:22;;;;;;;7.40;3.80;;;;;;;;;;5123381;28;20919;-63
2023/09/15 12:56:52;;;;;;;7.97;3.50;;;;;;;;;;5129895;28;20437;-63
2023/09/15 12:59:21;;;;;;;8.03;4.00;;;;;;;;;;5132529;28;20444;-63
2023/09/15 13:01:48;;;;;;;3.10;2.50;;;;;;;;;;5132373;28;21366;-63
2023/09/15 13:04:15;;;;;;;9.53;2.80;;;;;;;;;;5132119;28;20465;-63
2023/09/15 13:06:43;;;;;;;4.63;3.90;;;;;;;;;;5135596;27;20903;-62
2023/09/15 13:09:10;;;;;;;5.50;3.13;;;;;;;;;;5136170;27;20442;-62
2023/09/15 13:11:37;;;;;;;5.30;3.50;;;;;;;;;;5136893;27;20470;-62
2023/09/15 13:14:05;;;;;;;5.73;2.63;;;;;;;;;;5135958;27;20448;-62
2023/09/15 13:16:33;;;;;;;2.80;2.53;;;;;;;;;;5136611;27;20446;-63
2023/09/15 13:19:01;;;;;;;7.63;2.90;;;;;;;;;;5136710;27;20459;-63
2023/09/15 13:21:33;;;;;;;5.80;3.03;;;;;;;;;;5136755;27;20434;-62
2023/09/15 13:24:01;;;;;;;3.50;3.00;;;;;;;;;;5135863;27;20486;-62
2023/09/15 13:26:28;;;;;;;5.80;3.10;;;;;;;;;;5136382;27;20906;-63
2023/09/15 13:28:55;;;;;;;4.70;3.30;;;;;;;;;;5136654;27;20445;-62
2023/09/15 13:31:22;;;;;;;4.73;2.60;;;;;;;;;;5136119;27;20438;-62
2023/09/15 13:33:51;;;;;;;7.60;3.53;;;;;;;;;;5135630;27;20438;-62
2023/09/15 13:36:19;;;;;;;5.10;2.90;;;;;;;;;;5136535;27;20429;-63
2023/09/15 13:38:46;;;;;;;5.37;3.33;;;;;;;;;;5136071;27;20458;-63
2023/09/15 13:41:14;;;;;;;7.57;3.50;;;;;;;;;;5136046;27;20534;-62
2023/09/15 13:43:41;;;;;;;5.33;3.20;;;;;;;;;;5135929;27;20476;-64
2023/09/15 13:46:08;;;;;;;3.40;2.67;;;;;;;;;;5136130;27;20440;-63
2023/09/15 13:48:36;;;;;;;7.03;3.97;;;;;;;;;;5136200;27;20430;-63
2023/09/15 13:51:04;;;;;;;4.47;3.33;;;;;;;;;;5136024;27;20525;-63
2023/09/15 13:53:35;;;;;;;6.40;3.23;;;;;;;;;;5135743;27;20530;-63
2023/09/15 13:56:03;;;;;;;4.23;3.10;;;;;;;;;;5135626;27;20492;-63
2023/09/15 13:58:30;;;;;;;6.63;4.03;;;;;;;;;;5136119;27;20427;-63
2023/09/15 14:00:58;;;;;;;5.30;3.23;;;;;;;;;;5136310;27;20521;-65
2023/09/15 14:03:25;;;;;;;4.50;3.10;;;;;;;;;;5135569;27;20475;-63
2023/09/15 14:05:53;;;;;;;4.20;2.80;;;;;;;;;;5135162;27;20522;-63
2023/09/15 14:08:21;;;;;;;3.90;3.03;;;;;;;;;;5135745;27;20443;-64
2023/09/15 14:10:48;;;;;;;3.60;2.47;;;;;;;;;;5135218;27;20455;-63
2023/09/15 14:13:16;;;;;;;4.80;4.20;;;;;;;;;;5135506;27;20467;-64
2023/09/15 14:15:43;;;;;;;4.13;3.67;;;;;;;;;;5135706;27;20543;-63
2023/09/15 14:18:11;;;;;;;4.50;3.50;;;;;;;;;;5134262;27;20531;-63
2023/09/15 14:20:38;;;;;;;4.37;3.50;;;;;;;;;;5135589;27;20444;-63
2023/09/15 14:23:06;;;;;;;3.53;3.17;;;;;;;;;;5135469;27;20437;-63
2023/09/15 14:25:34;;;;;;;5.43;2.93;;;;;;;;;;5117362;27;20489;-63
2023/09/15 14:28:02;;;;;;;6.80;4.37;;;;;;;;;;5114875;28;20522;-63
2023/09/15 14:30:29;;;;;;;4.93;3.57;;;;;;;;;;5114610;28;20451;-63
2023/09/15 14:32:57;;;;;;;6.20;3.63;;;;;;;;;;5114624;28;20496;-63
2023/09/15 14:35:24;;;;;;;5.70;3.43;;;;;;;;;;5114404;28;20446;-63
2023/09/15 14:37:51;;;;;;;5.80;3.73;;;;;;;;;;5114826;28;20444;-63
2023/09/15 14:40:19;;;;;;;7.10;3.77;;;;;;;;;;5114342;28;20493;-63
2023/09/15 14:42:47;;;;;;;5.53;3.20;;;;;;;;;;5114656;28;20875;-63